createdAt,value
2022-11-25T00:00:36.311Z,17.56
2022-11-25T00:01:36.318Z,17.46
2022-11-25T00:02:36.473Z,17.46
2022-11-25T00:03:36.613Z,17.46
2022-11-25T00:04:36.723Z,17.56
2022-11-25T00:05:36.317Z,17.46
2022-11-25T00:06:36.310Z,17.46
2022-11-25T00:07:36.365Z,17.46
2022-11-25T00:08:36.330Z,17.46
2022-11-25T00:09:36.315Z,17.46
2022-11-25T00:10:36.309Z,17.46
2022-11-25T00:11:36.315Z,17.56
2022-11-25T00:12:36.309Z,17.66
2022-11-25T00:13:36.315Z,17.46
2022-11-25T00:14:36.687Z,17.46
2022-11-25T00:15:36.314Z,17.46
2022-11-25T00:16:36.357Z,17.56
2022-11-25T00:17:36.316Z,17.46
2022-11-25T00:18:36.308Z,17.56
2022-11-25T00:19:36.313Z,17.46
2022-11-25T00:20:36.308Z,17.46
2022-11-25T00:21:36.313Z,17.56
2022-11-25T00:22:36.304Z,17.46
2022-11-25T00:23:36.311Z,17.46
2022-11-25T00:24:36.716Z,17.46
2022-11-25T00:25:36.312Z,17.46
2022-11-25T00:26:36.308Z,17.46
2022-11-25T00:27:36.311Z,17.46
2022-11-25T00:28:36.303Z,17.46
2022-11-25T00:29:36.312Z,17.55
2022-11-25T00:30:36.303Z,17.46
2022-11-25T00:31:36.360Z,17.36
2022-11-25T00:32:36.302Z,17.46
2022-11-25T00:33:36.310Z,17.46
2022-11-25T00:34:36.593Z,17.46
2022-11-25T00:35:36.307Z,17.46
2022-11-25T00:36:36.303Z,17.56
2022-11-25T00:37:36.308Z,17.56
2022-11-25T00:38:36.300Z,17.56
2022-11-25T00:39:36.307Z,17.46
2022-11-25T00:40:36.320Z,17.56
2022-11-25T00:41:36.306Z,17.46
2022-11-25T00:42:36.310Z,17.56
2022-11-25T00:43:36.306Z,17.56
2022-11-25T00:44:37.140Z,17.46
2022-11-25T00:45:36.386Z,17.46
2022-11-25T00:46:36.298Z,17.56
2022-11-25T00:47:36.305Z,17.55
2022-11-25T00:48:36.296Z,17.46
2022-11-25T00:49:36.303Z,17.46
2022-11-25T00:50:36.296Z,17.46
2022-11-25T00:51:36.302Z,17.56
2022-11-25T00:52:36.296Z,17.46
2022-11-25T00:53:36.304Z,17.36
2022-11-25T00:54:36.562Z,17.46
2022-11-25T00:55:36.301Z,17.46
2022-11-25T00:56:36.318Z,17.36
2022-11-25T00:57:36.302Z,17.46
2022-11-25T00:58:36.296Z,17.46
2022-11-25T00:59:36.303Z,17.46
2022-11-25T01:00:36.294Z,17.55
2022-11-25T01:01:36.402Z,17.56
2022-11-25T01:02:36.356Z,17.55
2022-11-25T01:03:36.302Z,17.46
2022-11-25T01:04:36.572Z,17.46
2022-11-25T01:05:36.299Z,17.46
2022-11-25T01:06:36.293Z,17.46
2022-11-25T01:07:36.346Z,17.36
2022-11-25T01:08:36.290Z,17.36
2022-11-25T01:09:36.298Z,17.36
2022-11-25T01:10:36.290Z,17.46
2022-11-25T01:11:36.298Z,17.56
2022-11-25T01:12:36.311Z,17.36
2022-11-25T01:13:36.296Z,17.36
2022-11-25T01:14:36.770Z,17.36
2022-11-25T01:15:36.444Z,17.36
2022-11-25T01:16:36.325Z,17.36
2022-11-25T01:17:36.295Z,17.36
2022-11-25T01:18:36.289Z,17.36
2022-11-25T01:19:36.295Z,17.36
2022-11-25T01:20:36.285Z,17.36
2022-11-25T01:21:36.294Z,17.36
2022-11-25T01:22:36.286Z,17.46
2022-11-25T01:23:36.292Z,17.36
2022-11-25T01:24:36.463Z,17.46
2022-11-25T01:25:36.293Z,17.27
2022-11-25T01:26:36.289Z,17.36
2022-11-25T01:27:36.291Z,17.36
2022-11-25T01:28:36.309Z,17.46
2022-11-25T01:29:36.291Z,17.36
2022-11-25T01:30:41.078Z,17.27
2022-11-25T01:31:36.453Z,17.36
2022-11-25T01:32:36.283Z,17.46
2022-11-25T01:33:36.290Z,17.27
2022-11-25T01:34:36.411Z,17.27
2022-11-25T01:35:36.289Z,17.46
2022-11-25T01:36:36.286Z,17.36
2022-11-25T01:37:36.288Z,17.36
2022-11-25T01:38:36.282Z,17.36
2022-11-25T01:39:36.289Z,17.46
2022-11-25T01:40:36.280Z,17.27
2022-11-25T01:41:36.288Z,17.36
2022-11-25T01:42:36.280Z,17.46
2022-11-25T01:43:36.286Z,17.36
2022-11-25T01:44:36.537Z,17.36
2022-11-25T01:45:36.371Z,17.36
2022-11-25T01:46:36.281Z,17.36
2022-11-25T01:47:36.284Z,17.36
2022-11-25T01:48:36.277Z,17.36
2022-11-25T01:49:36.285Z,17.36
2022-11-25T01:50:36.278Z,17.46
2022-11-25T01:51:36.284Z,17.36
2022-11-25T01:52:36.276Z,17.36
2022-11-25T01:53:36.283Z,17.46
2022-11-25T01:54:36.636Z,17.26
2022-11-25T01:55:36.283Z,17.36
2022-11-25T01:56:36.274Z,17.27
2022-11-25T01:57:36.283Z,17.36
2022-11-25T01:58:36.275Z,17.27
2022-11-25T01:59:36.281Z,17.27
2022-11-25T02:00:36.296Z,17.27
2022-11-25T02:01:36.375Z,17.26
2022-11-25T02:02:36.335Z,17.36
2022-11-25T02:03:36.280Z,17.27
2022-11-25T02:04:36.479Z,17.36
2022-11-25T02:05:36.282Z,17.27
2022-11-25T02:06:36.273Z,17.27
2022-11-25T02:07:36.384Z,17.26
2022-11-25T02:08:36.271Z,17.27
2022-11-25T02:09:36.279Z,17.27
2022-11-25T02:10:36.273Z,17.26
2022-11-25T02:11:36.279Z,17.26
2022-11-25T02:12:36.272Z,17.46
2022-11-25T02:13:36.277Z,17.26
2022-11-25T02:14:36.636Z,17.46
2022-11-25T02:15:36.393Z,17.65
2022-11-25T02:16:36.344Z,17.36
2022-11-25T02:17:36.277Z,17.27
2022-11-25T02:18:36.269Z,17.56
2022-11-25T02:19:36.277Z,17.46
2022-11-25T02:20:36.268Z,17.36
2022-11-25T02:21:36.275Z,17.46
2022-11-25T02:22:36.268Z,17.36
2022-11-25T02:23:36.274Z,17.46
2022-11-25T02:24:36.526Z,17.56
2022-11-25T02:25:36.280Z,17.56
2022-11-25T02:26:36.266Z,17.46
2022-11-25T02:27:36.273Z,17.55
2022-11-25T02:28:36.266Z,17.56
2022-11-25T02:29:36.275Z,17.66
2022-11-25T02:30:36.268Z,17.56
2022-11-25T02:31:36.359Z,17.56
2022-11-25T02:32:36.284Z,17.55
2022-11-25T02:33:36.273Z,17.55
2022-11-25T02:34:36.588Z,17.36
2022-11-25T02:35:36.270Z,17.46
2022-11-25T02:36:36.262Z,17.36
2022-11-25T02:37:36.270Z,17.46
2022-11-25T02:38:36.270Z,17.07
2022-11-25T02:39:36.261Z,17.07
2022-11-25T02:40:36.269Z,17.46
2022-11-25T02:41:36.263Z,17.46
2022-11-25T02:42:36.270Z,17.36
2022-11-25T02:43:36.261Z,17.46
2022-11-25T02:44:36.504Z,17.27
2022-11-25T02:45:36.314Z,17.36
2022-11-25T02:46:36.270Z,17.46
2022-11-25T02:47:36.259Z,17.36
2022-11-25T02:49:06.763Z,17.27
2022-11-25T02:49:36.259Z,17.46
2022-11-25T02:50:36.266Z,17.56
2022-11-25T02:51:36.260Z,17.55
2022-11-25T02:52:36.265Z,17.36
2022-11-25T02:53:36.259Z,17.08
2022-11-25T02:54:36.457Z,17.18
2022-11-25T02:55:36.257Z,17.55
2022-11-25T02:56:36.264Z,17.16
2022-11-25T02:57:36.256Z,17.36
2022-11-25T02:58:36.264Z,17.27
2022-11-25T02:59:36.256Z,17.36
2022-11-25T03:00:36.262Z,17.16
2022-11-25T03:01:36.369Z,17.08
2022-11-25T03:02:36.319Z,17.36
2022-11-25T03:03:36.254Z,17.08
2022-11-25T03:04:36.586Z,17.36
2022-11-25T03:05:36.254Z,17.16
2022-11-25T03:06:36.273Z,17.36
2022-11-25T03:07:36.305Z,17.55
2022-11-25T03:08:36.260Z,17.55
2022-11-25T03:09:36.253Z,17.55
2022-11-25T03:10:36.264Z,17.46
2022-11-25T03:11:36.251Z,17.46
2022-11-25T03:12:36.260Z,17.27
2022-11-25T03:13:36.252Z,17.07
2022-11-25T03:14:36.492Z,17.46
2022-11-25T03:15:36.249Z,17.16
2022-11-25T03:16:36.344Z,17.56
2022-11-25T03:17:36.250Z,17.16
2022-11-25T03:18:36.258Z,17.46
2022-11-25T03:19:36.248Z,17.46
2022-11-25T03:20:36.280Z,17.56
2022-11-25T03:21:36.248Z,17.46
2022-11-25T03:22:36.257Z,17.55
2022-11-25T03:23:36.251Z,17.56
2022-11-25T03:24:36.539Z,17.56
2022-11-25T03:25:36.251Z,17.55
2022-11-25T03:26:36.257Z,17.56
2022-11-25T03:27:36.246Z,17.27
2022-11-25T03:28:36.268Z,17.66
2022-11-25T03:29:36.245Z,17.46
2022-11-25T03:30:36.254Z,17.46
2022-11-25T03:31:36.295Z,17.46
2022-11-25T03:32:36.252Z,17.36
2022-11-25T03:33:36.246Z,17.36
2022-11-25T03:34:36.500Z,17.26
2022-11-25T03:35:36.245Z,17.26
2022-11-25T03:36:36.317Z,17.36
2022-11-25T03:37:36.244Z,17.26
2022-11-25T03:38:36.253Z,17.18
2022-11-25T03:39:36.243Z,17.26
2022-11-25T03:40:36.251Z,17.46
2022-11-25T03:41:36.242Z,17.36
2022-11-25T03:42:36.250Z,17.26
2022-11-25T03:43:36.241Z,17.36
2022-11-25T03:44:36.664Z,17.27
2022-11-25T03:45:36.305Z,17.46
2022-11-25T03:46:36.248Z,17.46
2022-11-25T03:47:36.241Z,17.27
2022-11-25T03:48:36.248Z,17.26
2022-11-25T03:49:36.240Z,17.27
2022-11-25T03:50:36.247Z,17.27
2022-11-25T03:51:36.239Z,17.36
2022-11-25T03:52:36.269Z,17.36
2022-11-25T03:53:36.241Z,17.26
2022-11-25T03:54:36.480Z,17.26
2022-11-25T03:55:36.237Z,17.26
2022-11-25T03:56:36.244Z,17.26
2022-11-25T03:57:36.242Z,17.46
2022-11-25T03:58:36.247Z,17.26
2022-11-25T03:59:36.239Z,17.27
2022-11-25T04:00:36.244Z,17.26
2022-11-25T04:01:40.016Z,17.27
2022-11-25T04:02:36.303Z,17.36
2022-11-25T04:03:36.234Z,17.46
2022-11-25T04:04:36.492Z,17.27
2022-11-25T04:05:36.237Z,17.26
2022-11-25T04:06:36.241Z,17.46
2022-11-25T04:07:36.362Z,17.55
2022-11-25T04:08:36.262Z,17.27
2022-11-25T04:09:36.236Z,17.36
2022-11-25T04:10:36.241Z,17.46
2022-11-25T04:11:36.232Z,17.55
2022-11-25T04:12:36.239Z,17.36
2022-11-25T04:13:36.234Z,17.26
2022-11-25T04:14:36.430Z,17.46
2022-11-25T04:15:36.232Z,17.26
2022-11-25T04:16:36.295Z,17.36
2022-11-25T04:17:36.231Z,17.26
2022-11-25T04:18:36.238Z,17.36
2022-11-25T04:19:36.230Z,17.46
2022-11-25T04:20:36.247Z,17.36
2022-11-25T04:21:36.230Z,17.26
2022-11-25T04:22:36.238Z,17.55
2022-11-25T04:23:36.229Z,17.46
2022-11-25T04:24:36.549Z,17.46
2022-11-25T04:25:36.228Z,17.27
2022-11-25T04:26:36.236Z,17.46
2022-11-25T04:27:36.227Z,17.46
2022-11-25T04:28:36.235Z,17.46
2022-11-25T04:29:36.228Z,17.36
2022-11-25T04:30:36.288Z,17.36
2022-11-25T04:31:36.226Z,17.46
2022-11-25T04:32:36.237Z,17.26
2022-11-25T04:33:36.229Z,17.26
2022-11-25T04:34:36.547Z,17.55
2022-11-25T04:35:36.224Z,17.46
2022-11-25T04:36:36.233Z,17.46
2022-11-25T04:37:36.224Z,17.56
2022-11-25T04:38:36.233Z,17.46
2022-11-25T04:39:36.224Z,17.46
2022-11-25T04:40:36.254Z,17.46
2022-11-25T04:41:36.223Z,17.46
2022-11-25T04:42:36.230Z,17.36
2022-11-25T04:43:36.226Z,17.46
2022-11-25T04:44:36.419Z,17.27
2022-11-25T04:45:58.669Z,17.36
2022-11-25T04:46:36.262Z,17.26
2022-11-25T04:47:36.220Z,17.46
2022-11-25T04:48:36.229Z,17.36
2022-11-25T04:49:36.222Z,17.27
2022-11-25T04:50:36.227Z,17.36
2022-11-25T04:51:36.219Z,17.27
2022-11-25T04:52:36.227Z,17.56
2022-11-25T04:53:36.225Z,17.46
2022-11-25T04:54:36.491Z,17.36
2022-11-25T04:55:36.219Z,17.55
2022-11-25T04:56:36.246Z,17.46
2022-11-25T04:57:36.220Z,17.46
2022-11-25T04:58:36.227Z,17.26
2022-11-25T04:59:36.216Z,17.26
2022-11-25T05:00:36.224Z,17.46
2022-11-25T05:01:36.231Z,17.46
2022-11-25T05:02:36.279Z,17.56
2022-11-25T05:03:36.216Z,17.55
2022-11-25T05:04:36.619Z,17.36
2022-11-25T05:05:36.217Z,17.56
2022-11-25T05:06:36.230Z,17.56
2022-11-25T05:07:36.240Z,17.46
2022-11-25T05:08:36.221Z,17.55
2022-11-25T05:09:36.214Z,17.26
2022-11-25T05:10:36.222Z,17.27
2022-11-25T05:11:36.215Z,17.46
2022-11-25T05:12:36.244Z,17.46
2022-11-25T05:13:36.214Z,17.56
2022-11-25T05:14:36.391Z,17.56
2022-11-25T05:15:36.213Z,17.56
2022-11-25T05:16:36.251Z,17.55
2022-11-25T05:17:36.212Z,17.46
2022-11-25T05:18:36.218Z,17.26
2022-11-25T05:19:36.210Z,17.27
2022-11-25T05:20:36.218Z,17.46
2022-11-25T05:21:36.211Z,17.46
2022-11-25T05:22:36.217Z,17.56
2022-11-25T05:23:36.209Z,17.55
2022-11-25T05:24:36.478Z,17.55
2022-11-25T05:25:36.210Z,17.36
2022-11-25T05:26:36.218Z,17.56
2022-11-25T05:27:36.208Z,17.56
2022-11-25T05:28:36.237Z,17.46
2022-11-25T05:29:36.209Z,17.56
2022-11-25T05:30:36.256Z,17.36
2022-11-25T05:31:36.208Z,17.18
2022-11-25T05:32:36.215Z,17.36
2022-11-25T05:33:36.208Z,17.55
2022-11-25T05:34:36.446Z,17.46
2022-11-25T05:35:36.206Z,17.46
2022-11-25T05:36:36.212Z,17.55
2022-11-25T05:37:36.205Z,17.46
2022-11-25T05:38:36.216Z,17.08
2022-11-25T05:39:36.204Z,17.26
2022-11-25T05:40:36.211Z,17.18
2022-11-25T05:41:36.204Z,17.46
2022-11-25T05:42:36.212Z,17.18
2022-11-25T05:43:36.206Z,17.26
2022-11-25T05:44:36.529Z,17.27
2022-11-25T05:45:36.336Z,17.36
2022-11-25T05:46:36.279Z,17.16
2022-11-25T05:47:36.203Z,17.07
2022-11-25T05:48:36.212Z,17.16
2022-11-25T05:49:36.201Z,17.08
2022-11-25T05:50:36.209Z,17.07
2022-11-25T05:51:36.199Z,17.16
2022-11-25T05:52:36.211Z,17.46
2022-11-25T05:53:36.201Z,17.46
2022-11-25T05:54:36.678Z,17.16
2022-11-25T05:55:36.200Z,17.36
2022-11-25T05:56:36.214Z,17.27
2022-11-25T05:57:36.200Z,17.46
2022-11-25T05:58:36.206Z,17.46
2022-11-25T05:59:36.198Z,17.08
2022-11-25T06:00:36.226Z,17.27
2022-11-25T06:01:36.197Z,17.46
2022-11-25T06:02:36.442Z,17.36
2022-11-25T06:03:36.359Z,17.07
2022-11-25T06:04:36.580Z,17.27
2022-11-25T06:05:36.196Z,17.36
2022-11-25T06:06:36.204Z,17.27
2022-11-25T06:07:36.267Z,17.16
2022-11-25T06:08:36.203Z,17.36
2022-11-25T06:09:36.195Z,17.36
2022-11-25T06:10:36.203Z,17.36
2022-11-25T06:11:36.193Z,17.26
2022-11-25T06:12:36.201Z,17.27
2022-11-25T06:13:36.196Z,17.27
2022-11-25T06:14:36.502Z,17.36
2022-11-25T06:15:36.400Z,17.26
2022-11-25T06:16:36.253Z,17.26
2022-11-25T06:17:36.192Z,17.46
2022-11-25T06:18:36.203Z,17.27
2022-11-25T06:19:36.191Z,17.46
2022-11-25T06:20:36.204Z,17.46
2022-11-25T06:21:36.193Z,17.18
2022-11-25T06:22:36.198Z,17.16
2022-11-25T06:23:36.190Z,17.36
2022-11-25T06:24:36.569Z,17.36
2022-11-25T06:25:36.190Z,17.36
2022-11-25T06:26:36.320Z,17.16
2022-11-25T06:28:04.615Z,17.18
2022-11-25T06:28:36.198Z,17.16
2022-11-25T06:29:36.190Z,17.36
2022-11-25T06:30:36.198Z,17.16
2022-11-25T06:31:36.249Z,17.26
2022-11-25T06:32:37.581Z,17.16
2022-11-25T06:33:36.189Z,17.26
2022-11-25T06:34:36.446Z,17.27
2022-11-25T06:35:36.187Z,17.16
2022-11-25T06:36:36.193Z,17.18
2022-11-25T06:37:36.186Z,17.36
2022-11-25T06:38:36.194Z,17.36
2022-11-25T06:39:36.187Z,17.36
2022-11-25T06:40:36.195Z,17.27
2022-11-25T06:41:36.185Z,17.36
2022-11-25T06:42:36.193Z,17.16
2022-11-25T06:43:36.184Z,17.16
2022-11-25T06:44:36.379Z,17.18
2022-11-25T06:45:36.184Z,17.27
2022-11-25T06:46:36.229Z,17.27
2022-11-25T06:47:36.183Z,17.26
2022-11-25T06:48:36.218Z,17.27
2022-11-25T06:49:36.183Z,17.16
2022-11-25T06:50:36.189Z,17.26
2022-11-25T06:51:36.216Z,17.27
2022-11-25T06:52:36.189Z,17.26
2022-11-25T06:53:36.214Z,17.16
2022-11-25T06:54:36.403Z,17.16
2022-11-25T06:55:36.187Z,17.26
2022-11-25T06:56:36.188Z,17.26
2022-11-25T06:57:36.187Z,17.27
2022-11-25T06:58:36.789Z,17.26
2022-11-25T06:59:36.186Z,17.08
2022-11-25T07:00:36.179Z,17.08
2022-11-25T07:01:36.232Z,17.16
2022-11-25T07:02:40.870Z,17.16
2022-11-25T07:03:36.188Z,17.07
2022-11-25T07:04:36.514Z,17.18
2022-11-25T07:05:36.191Z,17.18
2022-11-25T07:06:36.178Z,17.27
2022-11-25T07:07:36.258Z,17.08
2022-11-25T07:08:36.184Z,17.18
2022-11-25T07:09:36.189Z,17.18
2022-11-25T07:10:36.186Z,17.18
2022-11-25T07:11:36.183Z,17.16
2022-11-25T07:12:36.176Z,17.27
2022-11-25T07:13:36.183Z,17.26
2022-11-25T07:14:36.520Z,17.18
2022-11-25T07:15:36.214Z,17.18
2022-11-25T07:16:36.175Z,17.18
2022-11-25T07:17:36.183Z,17.27
2022-11-25T07:18:36.223Z,17.18
2022-11-25T07:19:36.179Z,17.18
2022-11-25T07:20:36.210Z,17.08
2022-11-25T07:21:36.180Z,17.18
2022-11-25T07:22:36.173Z,17.18
2022-11-25T07:23:36.179Z,17.16
2022-11-25T07:24:36.494Z,17.18
2022-11-25T07:25:36.179Z,17.18
2022-11-25T07:26:36.172Z,17.18
2022-11-25T07:27:36.177Z,17.18
2022-11-25T07:28:36.170Z,17.16
2022-11-25T07:29:57.924Z,17.18
2022-11-25T07:31:36.331Z,17.18
2022-11-25T07:32:36.169Z,17.18
2022-11-25T07:33:36.215Z,17.18
2022-11-25T07:34:36.196Z,17.18
2022-11-25T07:35:36.176Z,17.08
2022-11-25T07:36:36.193Z,17.18
2022-11-25T07:37:36.175Z,17.18
2022-11-25T07:38:36.167Z,17.18
2022-11-25T07:39:36.602Z,17.18
2022-11-25T07:40:36.167Z,17.08
2022-11-25T07:41:36.174Z,17.08
2022-11-25T07:42:36.169Z,17.08
2022-11-25T07:43:36.174Z,16.98
2022-11-25T07:44:36.166Z,17.08
2022-11-25T07:45:36.172Z,17.08
2022-11-25T07:46:36.256Z,16.98
2022-11-25T07:47:36.171Z,16.88
2022-11-25T07:48:36.164Z,17.08
2022-11-25T07:49:36.487Z,16.98
2022-11-25T07:50:36.164Z,17.08
2022-11-25T07:51:36.171Z,17.08
2022-11-25T07:52:36.185Z,16.88
2022-11-25T07:53:36.171Z,16.98
2022-11-25T07:54:36.164Z,16.78
2022-11-25T07:55:36.185Z,16.98
2022-11-25T07:56:36.162Z,16.88
2022-11-25T07:57:36.176Z,16.88
2022-11-25T07:58:36.649Z,16.88
2022-11-25T07:59:36.457Z,17.27
2022-11-25T08:00:36.161Z,17.18
2022-11-25T08:01:36.304Z,17.18
2022-11-25T08:02:36.272Z,16.88
2022-11-25T08:03:36.171Z,16.69
2022-11-25T08:04:36.160Z,16.88
2022-11-25T08:05:36.167Z,16.69
2022-11-25T08:06:36.161Z,16.78
2022-11-25T08:07:36.876Z,16.88
2022-11-25T08:08:36.181Z,16.88
2022-11-25T08:09:36.473Z,16.78
2022-11-25T08:10:36.159Z,16.78
2022-11-25T08:11:36.165Z,16.78
2022-11-25T08:12:36.157Z,16.69
2022-11-25T08:13:36.167Z,16.69
2022-11-25T08:14:36.160Z,16.78
2022-11-25T08:15:36.180Z,16.78
2022-11-25T08:16:36.163Z,16.78
2022-11-25T08:17:36.168Z,16.78
2022-11-25T08:18:36.156Z,16.69
2022-11-25T08:19:36.524Z,16.69
2022-11-25T08:20:36.157Z,16.78
2022-11-25T08:21:36.164Z,16.69
2022-11-25T08:22:36.154Z,16.78
2022-11-25T08:23:36.163Z,16.69
2022-11-25T08:24:36.179Z,16.78
2022-11-25T08:25:36.163Z,16.78
2022-11-25T08:26:36.155Z,16.88
2022-11-25T08:27:36.160Z,16.88
2022-11-25T08:28:36.151Z,16.78
2022-11-25T08:29:36.321Z,16.88
2022-11-25T08:30:36.152Z,16.88
2022-11-25T08:31:36.259Z,16.78
2022-11-25T08:32:36.151Z,16.87
2022-11-25T08:33:36.161Z,16.88
2022-11-25T08:34:36.152Z,16.78
2022-11-25T08:35:36.158Z,16.69
2022-11-25T08:36:36.151Z,16.97
2022-11-25T08:37:36.157Z,16.97
2022-11-25T08:38:36.149Z,16.87
2022-11-25T08:39:51.638Z,16.88
2022-11-25T08:40:36.175Z,16.78
2022-11-25T08:41:36.155Z,16.97
2022-11-25T08:42:36.152Z,16.97
2022-11-25T08:43:36.154Z,16.78
2022-11-25T08:44:36.147Z,16.88
2022-11-25T08:45:36.154Z,16.87
2022-11-25T08:46:36.261Z,16.87
2022-11-25T08:47:36.153Z,16.88
2022-11-25T08:48:36.146Z,16.98
2022-11-25T08:49:40.763Z,16.98
2022-11-25T08:50:36.198Z,16.87
2022-11-25T08:51:36.151Z,16.88
2022-11-25T08:52:36.146Z,16.98
2022-11-25T08:53:36.152Z,16.78
2022-11-25T08:54:36.146Z,16.98
2022-11-25T08:55:36.157Z,16.88
2022-11-25T08:56:36.167Z,16.98
2022-11-25T08:57:36.152Z,16.98
2022-11-25T08:58:36.143Z,16.88
2022-11-25T08:59:36.591Z,16.87
2022-11-25T09:00:36.143Z,17.08
2022-11-25T09:01:36.230Z,17.08
2022-11-25T09:02:36.216Z,16.98
2022-11-25T09:03:36.148Z,17.08
2022-11-25T09:04:36.140Z,17.07
2022-11-25T09:05:36.151Z,16.98
2022-11-25T09:06:36.141Z,16.97
2022-11-25T09:07:36.311Z,16.98
2022-11-25T09:08:36.140Z,17.07
2022-11-25T09:09:36.656Z,17.08
2022-11-25T09:10:36.142Z,17.08
2022-11-25T09:11:36.216Z,17.07
2022-11-25T09:12:36.163Z,17.18
2022-11-25T09:13:36.197Z,17.08
2022-11-25T09:14:36.139Z,16.97
2022-11-25T09:15:36.144Z,17.18
2022-11-25T09:16:36.252Z,17.08
2022-11-25T09:17:36.146Z,17.18
2022-11-25T09:18:36.140Z,17.18
2022-11-25T09:19:36.371Z,17.18
2022-11-25T09:20:36.135Z,17.16
2022-11-25T09:21:36.143Z,17.18
2022-11-25T09:22:36.136Z,17.27
2022-11-25T09:23:36.142Z,17.27
2022-11-25T09:24:36.152Z,17.08
2022-11-25T09:25:36.146Z,17.16
2022-11-25T09:26:36.134Z,17.16
2022-11-25T09:27:36.141Z,17.16
2022-11-25T09:28:36.155Z,17.26
2022-11-25T09:29:36.554Z,17.16
2022-11-25T09:30:36.133Z,17.16
2022-11-25T09:31:36.212Z,17.18
2022-11-25T09:32:36.132Z,17.18
2022-11-25T09:33:36.140Z,17.27
2022-11-25T09:34:36.405Z,17.26
2022-11-25T09:35:36.138Z,17.27
2022-11-25T09:36:36.134Z,17.26
2022-11-25T09:37:36.137Z,17.16
2022-11-25T09:38:40.235Z,17.27
2022-11-25T09:39:36.383Z,17.18
2022-11-25T09:40:36.129Z,17.27
2022-11-25T09:41:36.137Z,17.08
2022-11-25T09:42:36.129Z,17.18
2022-11-25T09:43:36.135Z,17.18
2022-11-25T09:44:36.152Z,17.18
2022-11-25T09:45:36.141Z,17.08
2022-11-25T09:46:36.190Z,17.18
2022-11-25T09:47:36.136Z,17.18
2022-11-25T09:48:36.126Z,17.27
2022-11-25T09:49:36.513Z,17.27
2022-11-25T09:50:36.134Z,17.18
2022-11-25T09:51:36.133Z,17.18
2022-11-25T09:52:36.125Z,17.27
2022-11-25T09:53:36.133Z,17.18
2022-11-25T09:54:36.125Z,17.18
2022-11-25T09:55:36.134Z,17.18
2022-11-25T09:56:36.124Z,17.18
2022-11-25T09:57:36.184Z,17.18
2022-11-25T09:58:36.126Z,17.27
2022-11-25T09:59:36.552Z,17.27
2022-11-25T10:00:36.149Z,17.18
2022-11-25T10:01:36.138Z,17.27
2022-11-25T10:02:36.374Z,17.27
2022-11-25T10:03:36.234Z,17.27
2022-11-25T10:04:36.122Z,17.18
2022-11-25T10:05:36.129Z,17.18
2022-11-25T10:06:36.217Z,17.18
2022-11-25T10:07:36.217Z,17.18
2022-11-25T10:08:36.120Z,17.18
2022-11-25T10:09:36.418Z,17.18
2022-11-25T10:10:36.120Z,17.18
2022-11-25T10:11:36.129Z,17.18
2022-11-25T10:12:36.123Z,17.18
2022-11-25T10:13:36.126Z,17.18
2022-11-25T10:14:36.119Z,17.18
2022-11-25T10:15:36.125Z,17.27
2022-11-25T10:16:36.212Z,17.18
2022-11-25T10:17:36.210Z,17.27
2022-11-25T10:18:36.120Z,17.26
2022-11-25T10:19:36.336Z,17.18
2022-11-25T10:20:36.117Z,17.27
2022-11-25T10:21:36.123Z,17.18
2022-11-25T10:22:36.126Z,17.18
2022-11-25T10:23:36.125Z,17.18
2022-11-25T10:24:41.037Z,17.27
2022-11-25T10:25:36.122Z,17.26
2022-11-25T10:26:36.115Z,17.16
2022-11-25T10:27:36.182Z,17.18
2022-11-25T10:28:36.116Z,17.16
2022-11-25T10:29:36.121Z,17.18
2022-11-25T10:30:36.118Z,17.16
2022-11-25T10:31:36.207Z,17.26
2022-11-25T10:32:36.137Z,17.18
2022-11-25T10:33:36.122Z,17.18
2022-11-25T10:34:36.478Z,17.16
2022-11-25T10:35:36.124Z,17.08
2022-11-25T10:36:36.112Z,17.08
2022-11-25T10:37:36.172Z,17.07
2022-11-25T10:38:36.111Z,17.07
2022-11-25T10:39:36.120Z,17.07
2022-11-25T10:40:36.112Z,17.07
2022-11-25T10:41:36.118Z,16.98
2022-11-25T10:42:36.109Z,17.18
2022-11-25T10:43:36.116Z,16.97
2022-11-25T10:44:36.422Z,17.18
2022-11-25T10:45:36.120Z,17.26
2022-11-25T10:47:11.061Z,17.18
2022-11-25T10:47:36.292Z,17.27
2022-11-25T10:48:40.002Z,17.16
2022-11-25T10:49:36.118Z,17.18
2022-11-25T10:50:36.109Z,17.16
2022-11-25T10:51:36.119Z,17.16
2022-11-25T10:52:36.108Z,17.26
2022-11-25T10:53:36.113Z,17.18
2022-11-25T10:54:36.107Z,17.27
2022-11-25T10:55:36.117Z,17.26
2022-11-25T10:56:36.106Z,17.16
2022-11-25T10:57:36.113Z,17.16
2022-11-25T10:58:36.108Z,17.16
2022-11-25T10:59:36.132Z,17.36
2022-11-25T11:00:36.103Z,17.36
2022-11-25T11:01:36.168Z,17.26
2022-11-25T11:02:36.195Z,17.27
2022-11-25T11:03:36.112Z,17.36
2022-11-25T11:04:36.315Z,17.18
2022-11-25T11:05:36.111Z,17.16
2022-11-25T11:06:36.102Z,17.08
2022-11-25T11:07:36.246Z,17.18
2022-11-25T11:08:36.101Z,17.16
2022-11-25T11:09:36.109Z,17.16
2022-11-25T11:10:36.108Z,17.36
2022-11-25T11:11:36.100Z,17.08
2022-11-25T11:12:36.112Z,17.55
2022-11-25T11:13:36.101Z,17.46
2022-11-25T11:14:36.381Z,17.55
2022-11-25T11:15:36.099Z,17.56
2022-11-25T11:16:36.219Z,17.55
2022-11-25T11:17:37.312Z,17.36
2022-11-25T11:18:36.107Z,17.27
2022-11-25T11:19:36.098Z,17.36
2022-11-25T11:20:36.128Z,17.36
2022-11-25T11:21:36.126Z,17.27
2022-11-25T11:22:36.109Z,17.36
2022-11-25T11:23:36.098Z,17.36
2022-11-25T11:24:36.461Z,17.36
2022-11-25T11:25:36.098Z,17.27
2022-11-25T11:26:36.108Z,17.36
2022-11-25T11:27:36.101Z,17.46
2022-11-25T11:28:36.120Z,17.46
2022-11-25T11:29:36.098Z,17.36
2022-11-25T11:30:36.102Z,17.36
2022-11-25T11:31:36.212Z,17.36
2022-11-25T11:32:36.100Z,17.46
2022-11-25T11:33:36.093Z,17.46
2022-11-25T11:34:36.380Z,17.36
2022-11-25T11:35:41.563Z,17.56
2022-11-25T11:36:36.128Z,17.46
2022-11-25T11:37:36.100Z,17.46
2022-11-25T11:38:36.099Z,17.55
2022-11-25T11:39:36.090Z,17.55
2022-11-25T11:40:36.098Z,17.55
2022-11-25T11:41:36.097Z,17.46
2022-11-25T11:42:36.098Z,17.46
2022-11-25T11:43:36.090Z,17.66
2022-11-25T11:44:36.403Z,17.56
2022-11-25T11:45:36.089Z,17.46
2022-11-25T11:46:36.186Z,17.46
2022-11-25T11:47:36.089Z,17.56
2022-11-25T11:48:36.095Z,17.46
2022-11-25T11:49:36.094Z,17.55
2022-11-25T11:50:36.098Z,17.56
2022-11-25T11:51:36.086Z,17.56
2022-11-25T11:52:36.116Z,17.36
2022-11-25T11:53:36.089Z,17.46
2022-11-25T11:54:36.504Z,17.56
2022-11-25T11:55:36.086Z,17.46
2022-11-25T11:56:36.430Z,17.46
2022-11-25T11:57:36.089Z,17.46
2022-11-25T11:58:36.093Z,17.46
2022-11-25T11:59:36.083Z,17.46
2022-11-25T12:00:36.091Z,17.46
2022-11-25T12:01:36.135Z,17.65
2022-11-25T12:02:36.093Z,17.65
2022-11-25T12:03:36.126Z,17.65
2022-11-25T12:04:36.485Z,17.56
2022-11-25T12:05:36.084Z,17.74
2022-11-25T12:06:36.090Z,17.76
2022-11-25T12:07:36.188Z,17.74
2022-11-25T12:08:36.115Z,17.76
2022-11-25T12:09:36.092Z,17.66
2022-11-25T12:10:36.088Z,17.76
2022-11-25T12:11:36.081Z,17.85
2022-11-25T12:12:36.091Z,17.84
2022-11-25T12:13:36.085Z,17.85
2022-11-25T12:14:36.342Z,17.95
2022-11-25T12:15:36.081Z,17.94
2022-11-25T12:16:36.175Z,18.05
2022-11-25T12:17:36.080Z,17.56
2022-11-25T12:18:36.089Z,17.66
2022-11-25T12:19:36.080Z,17.66
2022-11-25T12:20:36.089Z,17.56
2022-11-25T12:21:40.369Z,18.05
2022-11-25T12:22:36.085Z,18.04
2022-11-25T12:23:36.078Z,17.76
2022-11-25T12:24:36.358Z,17.74
2022-11-25T12:25:36.077Z,17.74
2022-11-25T12:26:36.084Z,17.66
2022-11-25T12:27:36.076Z,17.65
2022-11-25T12:28:36.084Z,17.76
2022-11-25T12:29:36.076Z,17.66
2022-11-25T12:30:36.091Z,17.66
2022-11-25T12:31:36.144Z,17.84
2022-11-25T12:32:36.082Z,17.76
2022-11-25T12:33:36.076Z,17.84
2022-11-25T12:34:36.516Z,17.66
2022-11-25T12:35:36.075Z,17.76
2022-11-25T12:36:36.081Z,17.76
2022-11-25T12:37:36.075Z,17.74
2022-11-25T12:38:36.081Z,17.76
2022-11-25T12:39:36.072Z,17.76
2022-11-25T12:40:36.103Z,17.84
2022-11-25T12:41:36.072Z,17.76
2022-11-25T12:42:36.080Z,17.94
2022-11-25T12:43:36.075Z,17.94
2022-11-25T12:44:36.379Z,18.04
2022-11-25T12:45:36.122Z,18.05
2022-11-25T12:46:36.078Z,18.05
2022-11-25T12:47:36.069Z,17.85
2022-11-25T12:48:36.077Z,17.94
2022-11-25T12:49:36.071Z,17.95
2022-11-25T12:50:36.076Z,18.15
2022-11-25T12:51:36.067Z,17.95
2022-11-25T12:52:36.080Z,17.95
2022-11-25T12:53:36.070Z,18.05